SAWJ/ULA METAR and TAF weather

Enter ICAO airport designator
Station Type Date Time Source
SAWJ METAR 2018/07/14 17:15 UTC NOAA

SAWJ 141715Z 23020KT 5000 -SHSN SCT020 SCT030TCU M00/M01 Q1006


Station Type Date Time Source
SAWJ Decoded METAR 2018/07/14 17:15 UTC NOAA

San Julian Aerodrome, Argentina (SAWJ) 49-19S 067-45W 62M
Jul 14, 2018 - 01:15 PM EDT / 2018.07.14 1715 UTC
Wind: from the SW (230 degrees) at 23 MPH (20 KT):0
Visibility: 3 mile(s):0
Sky conditions: partly cloudy
Weather: light snow showers; Towering cumulus clouds observed
Temperature: 32 F (0 C)
Windchill: 19 F (-7 C):1
Dew Point: 30 F (-1 C)
Relative Humidity: 92%
Pressure (altimeter): 29.71 in. Hg (1006 hPa)
ob: SAWJ 141715Z 23020KT 5000 -SHSN SCT020 SCT030TCU M00/M01 Q1006
cycle: 17

Station Type Date Time Source
SAWJ TAF 2014/06/25 12:00 UTC NOAA

TAF SAWJ 251100Z 2512/2612 32025G35KT 9999 -RA BKN030 BKN045 TX06/2518Z TN02/2611Z
BECMG 2518/2520 29020G30KT NSW SCT030
BECMG 2609/2611 23020G30KT SHSN OVC015


Example: see airport list